createdAt,value
2022-12-13T00:00:08.469Z,-2.24
2022-12-13T00:03:14.145Z,-2.20
2022-12-13T00:06:15.737Z,-2.15
2022-12-13T00:09:18.449Z,-2.13
2022-12-13T00:12:19.858Z,-2.23
2022-12-13T00:15:21.250Z,-2.31
2022-12-13T00:18:22.672Z,-2.39
2022-12-13T00:21:27.718Z,-2.31
2022-12-13T00:24:29.105Z,-2.28
2022-12-13T00:27:30.675Z,-2.29
2022-12-13T00:30:32.170Z,-2.29
2022-12-13T00:33:34.204Z,-2.23
2022-12-13T00:36:35.595Z,-2.23
2022-12-13T00:39:37.074Z,-2.25
2022-12-13T00:42:38.468Z,-2.28
2022-12-13T00:45:40.499Z,-2.24
2022-12-13T00:48:42.888Z,-2.26
2022-12-13T00:51:44.285Z,-2.24
2022-12-13T00:54:45.690Z,-2.25
2022-12-13T00:57:47.125Z,-2.30
2022-12-13T01:00:48.547Z,-2.32
2022-12-13T01:03:51.270Z,-2.38
2022-12-13T01:06:53.794Z,-2.37
2022-12-13T01:09:58.118Z,-2.48
2022-12-13T01:12:59.875Z,-2.56
2022-12-13T01:16:03.683Z,-2.61
2022-12-13T01:19:06.170Z,-2.63
2022-12-13T01:22:08.185Z,-2.57
2022-12-13T01:25:10.721Z,-2.52
2022-12-13T01:28:12.125Z,-2.61
2022-12-13T01:31:17.607Z,-2.56
2022-12-13T01:34:21.107Z,-2.61
2022-12-13T01:37:28.039Z,-2.53
2022-12-13T01:40:29.650Z,-2.44
2022-12-13T01:43:37.336Z,-2.56
2022-12-13T01:46:38.709Z,-2.62
2022-12-13T01:49:40.138Z,-2.64
2022-12-13T01:52:44.136Z,-2.61
2022-12-13T01:55:50.312Z,-2.67
2022-12-13T01:58:55.242Z,-2.68
2022-12-13T02:02:01.122Z,-2.75
2022-12-13T02:05:41.475Z,-2.82
2022-12-13T02:08:44.740Z,-2.85
2022-12-13T02:11:46.755Z,-2.80
2022-12-13T02:14:48.390Z,-2.77
2022-12-13T02:18:03.058Z,-2.75
2022-12-13T02:21:21.220Z,-2.64
2022-12-13T02:24:40.249Z,-2.57
2022-12-13T02:28:00.491Z,-2.54
2022-12-13T02:31:08.474Z,-2.54
2022-12-13T02:34:26.922Z,-2.59
2022-12-13T02:37:50.700Z,-2.55
2022-12-13T02:41:10.439Z,-2.54
2022-12-13T02:44:22.832Z,-2.54
2022-12-13T02:47:27.664Z,-2.52
2022-12-13T02:50:31.728Z,-2.61
2022-12-13T02:53:34.694Z,-2.59
2022-12-13T02:56:36.170Z,-2.60
2022-12-13T02:59:39.727Z,-2.59
2022-12-13T03:02:59.624Z,-2.67
2022-12-13T03:06:34.082Z,-2.66
2022-12-13T03:09:48.745Z,-2.72
2022-12-13T03:13:38.200Z,-2.69
2022-12-13T03:16:43.664Z,-2.82
2022-12-13T03:19:45.104Z,-2.76
2022-12-13T03:22:46.524Z,-2.76
2022-12-13T03:25:52.097Z,-2.74
2022-12-13T03:28:53.719Z,-2.64
2022-12-13T03:31:55.232Z,-2.74
2022-12-13T03:35:00.922Z,-2.80
2022-12-13T03:38:04.042Z,-2.75
2022-12-13T03:41:09.790Z,-2.75
2022-12-13T03:44:11.425Z,-2.70
2022-12-13T03:47:12.852Z,-2.74
2022-12-13T03:50:26.763Z,-2.75
2022-12-13T03:53:32.703Z,-2.81
2022-12-13T03:56:35.771Z,-2.80
2022-12-13T03:59:38.965Z,-2.79
2022-12-13T04:02:40.481Z,-2.77
2022-12-13T04:05:42.561Z,-2.82
2022-12-13T04:08:44.043Z,-2.80
2022-12-13T04:12:04.086Z,-2.79
2022-12-13T04:15:06.759Z,-2.82
2022-12-13T04:18:08.180Z,-2.88
2022-12-13T04:21:09.736Z,-2.88
2022-12-13T04:24:11.137Z,-2.93
2022-12-13T04:27:12.539Z,-2.94
2022-12-13T04:30:14.028Z,-2.95
2022-12-13T04:33:15.419Z,-2.95
2022-12-13T04:36:31.659Z,-2.97
2022-12-13T04:39:34.920Z,-3.02
2022-12-13T04:42:36.424Z,-3.10
2022-12-13T04:45:37.863Z,-3.15
2022-12-13T04:48:39.756Z,-3.16
2022-12-13T04:51:41.177Z,-3.09
2022-12-13T04:54:56.128Z,-3.05
2022-12-13T04:57:57.705Z,-3.04
2022-12-13T05:00:59.207Z,-2.95
2022-12-13T05:04:04.126Z,-3.00
2022-12-13T05:07:05.685Z,-3.02
2022-12-13T05:10:07.642Z,-3.03
2022-12-13T05:13:09.043Z,-2.98
2022-12-13T05:16:10.556Z,-2.95
2022-12-13T05:19:11.994Z,-2.96
2022-12-13T05:22:19.805Z,-2.94
2022-12-13T05:25:22.391Z,-3.01
2022-12-13T05:28:28.782Z,-3.05
2022-12-13T05:31:30.597Z,-3.11
2022-12-13T05:34:32.057Z,-3.08
2022-12-13T05:37:34.879Z,-3.14
2022-12-13T05:40:36.499Z,-3.15
2022-12-13T05:43:42.702Z,-3.10
2022-12-13T05:46:45.160Z,-3.01
2022-12-13T05:49:46.569Z,-3.01
2022-12-13T05:52:48.061Z,-2.91
2022-12-13T05:55:49.707Z,-2.87
2022-12-13T05:58:53.637Z,-2.86
2022-12-13T06:01:56.885Z,-2.86
2022-12-13T06:04:58.383Z,-2.89
2022-12-13T06:08:01.335Z,-2.90
2022-12-13T06:11:11.556Z,-2.86
2022-12-13T06:14:21.567Z,-2.77
2022-12-13T06:17:25.155Z,-2.76
2022-12-13T06:20:26.800Z,-2.80
2022-12-13T06:23:30.632Z,-2.84
2022-12-13T06:26:32.645Z,-2.81
2022-12-13T06:29:34.190Z,-2.73
2022-12-13T06:32:38.930Z,-2.75
2022-12-13T06:35:43.986Z,-2.75
2022-12-13T06:38:45.584Z,-2.86
2022-12-13T06:41:47.115Z,-2.92
2022-12-13T06:44:51.676Z,-2.96
2022-12-13T06:47:59.978Z,-2.95
2022-12-13T06:51:03.412Z,-2.99
2022-12-13T06:54:04.849Z,-2.99
2022-12-13T06:57:06.249Z,-2.96
2022-12-13T07:00:09.113Z,-2.96
2022-12-13T07:03:12.365Z,-3.03
2022-12-13T07:06:16.298Z,-3.02
2022-12-13T07:09:17.788Z,-3.11
2022-12-13T07:12:20.835Z,-3.20
2022-12-13T07:15:22.263Z,-3.16
2022-12-13T07:18:23.758Z,-3.33
2022-12-13T07:21:25.364Z,-3.24
2022-12-13T07:24:26.869Z,-3.20
2022-12-13T07:27:28.268Z,-3.21
2022-12-13T07:30:41.090Z,-3.21
2022-12-13T07:33:43.186Z,-3.25
2022-12-13T07:36:44.594Z,-3.18
2022-12-13T07:39:46.152Z,-3.13
2022-12-13T07:42:53.187Z,-3.18
2022-12-13T07:45:54.985Z,-3.10
2022-12-13T07:49:01.541Z,-3.08
2022-12-13T07:52:03.498Z,-3.14
2022-12-13T07:55:06.045Z,-3.01
2022-12-13T07:58:10.437Z,-2.95
2022-12-13T08:01:14.447Z,-2.81
2022-12-13T08:04:15.865Z,-2.85
2022-12-13T08:07:17.301Z,-2.81
2022-12-13T08:10:18.796Z,-2.85
2022-12-13T08:13:21.503Z,-2.84
2022-12-13T08:16:27.615Z,-2.73
2022-12-13T08:19:30.399Z,-2.68
2022-12-13T08:22:35.731Z,-2.70
2022-12-13T08:25:37.871Z,-2.78
2022-12-13T08:28:39.293Z,-2.77
2022-12-13T08:31:40.911Z,-2.70
2022-12-13T08:34:43.178Z,-2.62
2022-12-13T08:37:44.584Z,-2.44
2022-12-13T08:40:45.961Z,-2.27
2022-12-13T08:43:47.734Z,-2.25
2022-12-13T08:46:49.272Z,-2.17
2022-12-13T08:49:50.902Z,-2.13
2022-12-13T08:52:52.610Z,-2.02
2022-12-13T08:55:53.988Z,-1.99
2022-12-13T08:58:55.363Z,-1.97
2022-12-13T09:02:01.602Z,-1.99
2022-12-13T09:05:08.068Z,-1.98
2022-12-13T09:08:23.369Z,-2.01
2022-12-13T09:11:34.636Z,-1.97
2022-12-13T09:14:45.708Z,-1.90
2022-12-13T09:17:52.359Z,-1.78
2022-12-13T09:20:54.461Z,-1.76
2022-12-13T09:24:24.724Z,-1.73
2022-12-13T09:27:28.955Z,-1.64
2022-12-13T09:30:31.488Z,-1.68
2022-12-13T09:33:40.735Z,-1.82
2022-12-13T09:36:43.242Z,-1.62
2022-12-13T09:39:44.660Z,-1.63
2022-12-13T09:43:04.535Z,-1.70
2022-12-13T09:46:23.681Z,-1.65
2022-12-13T09:49:35.068Z,-1.68
2022-12-13T09:52:39.899Z,-1.57
2022-12-13T09:55:52.293Z,-1.60
2022-12-13T09:58:56.593Z,-1.59
2022-12-13T10:02:14.337Z,-1.46
2022-12-13T10:05:34.260Z,-1.31
2022-12-13T10:08:46.969Z,-1.33
2022-12-13T10:11:53.984Z,-1.35
2022-12-13T10:14:59.939Z,-1.27
2022-12-13T10:18:04.201Z,-1.11
2022-12-13T10:21:14.197Z,-0.99
2022-12-13T10:24:32.918Z,-1.08
2022-12-13T10:27:42.365Z,-1.33
2022-12-13T10:30:46.388Z,-1.26
2022-12-13T10:33:54.683Z,-1.37
2022-12-13T10:36:59.523Z,-1.39
2022-12-13T10:40:01.508Z,-1.33
2022-12-13T10:43:22.159Z,-1.09
2022-12-13T10:46:25.391Z,-1.02
2022-12-13T10:49:32.050Z,-1.01
2022-12-13T10:52:48.026Z,-0.86
2022-12-13T10:55:55.097Z,-0.84
2022-12-13T10:59:22.518Z,-0.79
2022-12-13T11:02:39.936Z,-0.69
2022-12-13T11:05:42.029Z,-0.71
2022-12-13T11:08:43.863Z,-0.65
2022-12-13T11:11:45.291Z,-0.73
2022-12-13T11:14:54.189Z,-0.69
2022-12-13T11:18:02.985Z,-0.66
2022-12-13T11:21:07.615Z,-0.75
2022-12-13T11:24:23.109Z,-0.76
2022-12-13T11:27:39.649Z,-0.75
2022-12-13T11:30:55.019Z,-0.85
2022-12-13T11:34:13.409Z,-0.72
2022-12-13T11:37:20.735Z,-0.63
2022-12-13T11:40:28.507Z,-0.58
2022-12-13T11:43:39.535Z,-0.54
2022-12-13T11:46:50.359Z,-0.54
2022-12-13T11:49:52.667Z,-0.54
2022-12-13T11:52:59.149Z,-0.64
2022-12-13T11:56:07.283Z,-0.61
2022-12-13T11:59:24.424Z,-0.56
2022-12-13T12:02:36.200Z,-0.62
2022-12-13T12:05:41.025Z,-0.68
2022-12-13T12:08:47.413Z,-0.60
2022-12-13T12:12:00.001Z,-0.61
2022-12-13T12:15:30.735Z,-0.47
2022-12-13T12:18:33.345Z,-0.45
2022-12-13T12:22:14.175Z,-0.46
2022-12-13T12:25:30.975Z,-0.49
2022-12-13T12:28:55.164Z,-0.40
2022-12-13T12:32:18.084Z,-0.35
2022-12-13T12:35:46.053Z,-0.28
2022-12-13T12:39:19.956Z,-0.24
2022-12-13T12:43:14.032Z,-0.40
2022-12-13T12:46:35.449Z,-0.42
2022-12-13T12:49:57.490Z,-0.44
2022-12-13T12:53:23.266Z,-0.48
2022-12-13T12:56:47.470Z,-0.54
2022-12-13T13:00:09.301Z,-0.43
2022-12-13T13:03:24.106Z,-0.56
2022-12-13T13:06:29.453Z,-0.56
2022-12-13T13:09:31.867Z,-0.46
2022-12-13T13:12:43.013Z,-0.36
2022-12-13T13:15:54.379Z,-0.33
2022-12-13T13:18:57.718Z,-0.35
2022-12-13T13:22:01.410Z,-0.47
2022-12-13T13:25:06.489Z,-0.49
2022-12-13T13:28:17.093Z,-0.43
2022-12-13T13:31:18.608Z,-0.47
2022-12-13T13:34:25.692Z,-0.32
2022-12-13T13:37:43.778Z,-0.40
2022-12-13T13:40:45.327Z,-0.39
2022-12-13T13:43:46.831Z,-0.35
2022-12-13T13:47:12.337Z,-0.38
2022-12-13T13:50:48.642Z,-0.26
2022-12-13T13:54:06.566Z,-0.26
2022-12-13T13:58:08.319Z,-0.28
2022-12-13T14:01:31.337Z,-0.28
2022-12-13T14:05:09.397Z,-0.36
2022-12-13T14:08:36.003Z,-0.39
2022-12-13T14:12:06.824Z,-0.32
2022-12-13T14:15:23.403Z,-0.20
2022-12-13T14:18:58.109Z,-0.28
2022-12-13T14:21:59.523Z,-0.32
2022-12-13T14:25:19.920Z,-0.45
2022-12-13T14:28:51.760Z,-0.46
2022-12-13T14:31:53.422Z,-0.47
2022-12-13T14:35:25.297Z,-0.58
2022-12-13T14:38:24.132Z,-0.77
2022-12-13T14:41:25.578Z,-0.78
2022-12-13T14:44:34.376Z,-0.59
2022-12-13T14:47:36.353Z,-0.59
2022-12-13T14:50:40.061Z,-0.67
2022-12-13T14:53:41.766Z,-0.74
2022-12-13T14:57:18.118Z,-0.79
2022-12-13T15:00:33.639Z,-0.71
2022-12-13T15:03:35.255Z,-0.72
2022-12-13T15:06:36.829Z,-0.79
2022-12-13T15:09:41.497Z,-0.91
2022-12-13T15:12:44.563Z,-1.03
2022-12-13T15:15:53.725Z,-1.00
2022-12-13T15:19:31.172Z,-0.96
2022-12-13T15:22:37.436Z,-1.05
2022-12-13T15:26:08.731Z,-1.06
2022-12-13T15:29:14.516Z,-1.10
2022-12-13T15:32:19.183Z,-1.20
2022-12-13T15:35:27.292Z,-1.26
2022-12-13T15:38:29.502Z,-1.22
2022-12-13T15:41:41.611Z,-1.16
2022-12-13T15:44:53.954Z,-1.07
2022-12-13T15:47:55.797Z,-0.99
2022-12-13T15:51:29.823Z,-1.02
2022-12-13T15:54:33.059Z,-0.94
2022-12-13T15:57:48.029Z,-1.02
2022-12-13T16:00:49.700Z,-1.04
2022-12-13T16:03:51.277Z,-0.97
2022-12-13T16:06:53.377Z,-1.00
2022-12-13T16:09:56.075Z,-0.96
2022-12-13T16:13:07.833Z,-1.10
2022-12-13T16:16:10.026Z,-1.32
2022-12-13T16:19:18.055Z,-1.36
2022-12-13T16:22:21.683Z,-1.35
2022-12-13T16:25:23.451Z,-1.21
2022-12-13T16:28:26.303Z,-1.26
2022-12-13T16:31:35.844Z,-1.30
2022-12-13T16:34:38.116Z,-1.34
2022-12-13T16:37:39.510Z,-1.33
2022-12-13T16:40:43.997Z,-1.43
2022-12-13T16:44:04.020Z,-1.41
2022-12-13T16:47:21.956Z,-1.35
2022-12-13T16:50:25.888Z,-1.27
2022-12-13T16:53:27.768Z,-1.22
2022-12-13T16:56:29.480Z,-1.23
2022-12-13T16:59:30.863Z,-1.29
2022-12-13T17:02:32.300Z,-1.33
2022-12-13T17:05:35.149Z,-1.29
2022-12-13T17:08:36.915Z,-1.34
2022-12-13T17:11:38.440Z,-1.40
2022-12-13T17:14:39.828Z,-1.47
2022-12-13T17:17:44.661Z,-1.39
2022-12-13T17:20:47.146Z,-1.46
2022-12-13T17:24:01.333Z,-1.54
2022-12-13T17:27:02.776Z,-1.59
2022-12-13T17:30:09.300Z,-1.46
2022-12-13T17:33:13.187Z,-1.41
2022-12-13T17:36:15.835Z,-1.45
2022-12-13T17:39:17.633Z,-1.45
2022-12-13T17:42:19.050Z,-1.39
2022-12-13T17:45:21.503Z,-1.39
2022-12-13T17:48:23.127Z,-1.47
2022-12-13T17:51:24.725Z,-1.40
2022-12-13T17:54:26.352Z,-1.43
2022-12-13T17:57:27.835Z,-1.41
2022-12-13T18:00:29.285Z,-1.48
2022-12-13T18:03:30.963Z,-1.45
2022-12-13T18:06:33.753Z,-1.36
2022-12-13T18:09:35.154Z,-1.34
2022-12-13T18:12:36.577Z,-1.32
2022-12-13T18:15:38.017Z,-1.38
2022-12-13T18:18:41.593Z,-1.35
2022-12-13T18:21:46.149Z,-1.31
2022-12-13T18:24:47.572Z,-1.38
2022-12-13T18:27:49.004Z,-1.45
2022-12-13T18:30:50.454Z,-1.46
2022-12-13T18:33:55.672Z,-1.47
2022-12-13T18:36:57.068Z,-1.38
2022-12-13T18:39:58.595Z,-1.33
2022-12-13T18:43:00.032Z,-1.40
2022-12-13T18:46:04.053Z,-1.43
2022-12-13T18:49:06.393Z,-1.31
2022-12-13T18:52:08.155Z,-1.34
2022-12-13T18:55:09.821Z,-1.31
2022-12-13T18:58:11.239Z,-1.39
2022-12-13T19:01:13.435Z,-1.39
2022-12-13T19:04:14.989Z,-1.31
2022-12-13T19:07:16.963Z,-1.32
2022-12-13T19:10:18.593Z,-1.38
2022-12-13T19:13:20.500Z,-1.30
2022-12-13T19:16:23.327Z,-1.34
2022-12-13T19:19:24.771Z,-1.31
2022-12-13T19:22:26.215Z,-1.34
2022-12-13T19:25:27.618Z,-1.25
2022-12-13T19:28:29.020Z,-1.26
2022-12-13T19:31:32.468Z,-1.27
2022-12-13T19:34:34.184Z,-1.27
2022-12-13T19:37:38.999Z,-1.26
2022-12-13T19:40:42.509Z,-1.16
2022-12-13T19:43:49.125Z,-1.13
2022-12-13T19:46:53.881Z,-1.17
2022-12-13T19:49:55.481Z,-1.18
2022-12-13T19:52:56.875Z,-1.33
2022-12-13T19:55:58.745Z,-1.28
2022-12-13T19:59:00.116Z,-1.26
2022-12-13T20:02:01.922Z,-1.27
2022-12-13T20:05:03.640Z,-1.26
2022-12-13T20:08:05.686Z,-1.21
2022-12-13T20:11:16.979Z,-1.20
2022-12-13T20:14:18.465Z,-1.18
2022-12-13T20:17:19.963Z,-1.22
2022-12-13T20:20:21.506Z,-1.18
2022-12-13T20:23:22.949Z,-1.26
2022-12-13T20:26:27.428Z,-1.22
2022-12-13T20:29:28.883Z,-1.26
2022-12-13T20:32:30.578Z,-1.27
2022-12-13T20:35:31.995Z,-1.16
2022-12-13T20:38:34.172Z,-1.14
2022-12-13T20:41:36.804Z,-1.17
2022-12-13T20:44:38.200Z,-1.20
2022-12-13T20:47:39.818Z,-1.20
2022-12-13T20:50:41.296Z,-1.18
2022-12-13T20:53:49.620Z,-1.14
2022-12-13T20:56:51.127Z,-1.17
2022-12-13T20:59:52.516Z,-1.20
2022-12-13T21:02:53.930Z,-1.17
2022-12-13T21:05:56.135Z,-1.16
2022-12-13T21:09:02.978Z,-1.12
2022-12-13T21:12:04.646Z,-1.16
2022-12-13T21:15:07.305Z,-1.24
2022-12-13T21:18:08.803Z,-1.13
2022-12-13T21:21:11.252Z,-1.17
2022-12-13T21:24:14.768Z,-1.12
2022-12-13T21:27:16.143Z,-1.07
2022-12-13T21:30:17.601Z,-0.98
2022-12-13T21:33:18.997Z,-1.07
2022-12-13T21:36:23.701Z,-1.05
2022-12-13T21:39:29.203Z,-1.12
2022-12-13T21:42:30.670Z,-1.09
2022-12-13T21:45:33.055Z,-1.07
2022-12-13T21:48:34.988Z,-1.13
2022-12-13T21:51:36.381Z,-1.05
2022-12-13T21:54:37.772Z,-1.04
2022-12-13T21:57:59.841Z,-1.06
2022-12-13T22:01:04.529Z,-1.14
2022-12-13T22:04:07.243Z,-1.10
2022-12-13T22:07:09.880Z,-1.05
2022-12-13T22:10:11.288Z,-1.04
2022-12-13T22:13:12.765Z,-1.07
2022-12-13T22:16:14.179Z,-1.06
2022-12-13T22:19:15.939Z,-1.03
2022-12-13T22:22:18.593Z,-1.06
2022-12-13T22:25:19.982Z,-1.15
2022-12-13T22:28:21.395Z,-1.07
2022-12-13T22:31:26.650Z,-0.96
2022-12-13T22:34:31.509Z,-1.04
2022-12-13T22:37:33.234Z,-1.00
2022-12-13T22:40:37.317Z,-0.99
2022-12-13T22:43:38.794Z,-0.98
2022-12-13T22:46:40.880Z,-0.99
2022-12-13T22:49:42.347Z,-1.04
2022-12-13T22:52:43.807Z,-1.05
2022-12-13T22:55:45.282Z,-1.06
2022-12-13T22:58:52.103Z,-1.00
2022-12-13T23:02:02.151Z,-1.05
2022-12-13T23:05:04.933Z,-1.08
2022-12-13T23:08:06.325Z,-0.98
2022-12-13T23:11:26.877Z,-1.03
2022-12-13T23:14:31.316Z,-1.04
2022-12-13T23:17:33.729Z,-1.02
2022-12-13T23:20:35.908Z,-1.01
2022-12-13T23:23:37.397Z,-1.00
2022-12-13T23:26:38.888Z,-0.93
2022-12-13T23:29:40.391Z,-0.85
2022-12-13T23:32:41.789Z,-0.97
2022-12-13T23:35:43.313Z,-1.00
2022-12-13T23:38:45.366Z,-0.94
2022-12-13T23:41:46.856Z,-0.96
2022-12-13T23:44:49.063Z,-0.88
2022-12-13T23:47:51.056Z,-0.93
2022-12-13T23:50:53.553Z,-0.94
2022-12-13T23:53:55.237Z,-0.97
2022-12-13T23:56:56.689Z,-0.91
2022-12-13T23:59:58.096Z,-0.84
